Time;durP1;ratioP1;P1;durP2;ratioP2;P2;SDS_P1;SDS_P2;PMS_P1;PMS_P2;Temp;Humidity;BMP_temperature;BMP_pressure;BME280_temperature;BME280_humidity;BME280_pressure;Samples;Min_cycle;Max_cycle;Signal;HPM_P1;HPM_P2
2023/12/01 00:02:17;;;;;;;9.93;7.13;;;;;;;;;;5022527;28;20056;-80
2023/12/01 00:04:45;;;;;;;9.07;6.78;;;;;;;;;;5027714;28;20056;-80
2023/12/01 00:07:13;;;;;;;9.30;8.02;;;;;;;;;;5054713;28;20043;-80
2023/12/01 00:09:40;;;;;;;9.00;7.43;;;;;;;;;;5036962;28;20045;-80
2023/12/01 00:12:09;;;;;;;10.18;7.25;;;;;;;;;;5048297;28;20041;-80
2023/12/01 00:14:42;;;;;;;8.07;7.07;;;;;;;;;;5034521;28;20060;-80
2023/12/01 00:17:09;;;;;;;10.05;7.30;;;;;;;;;;5019149;28;20056;-80
2023/12/01 00:19:40;;;;;;;10.43;9.30;;;;;;;;;;5056033;28;20040;-80
2023/12/01 00:22:14;;;;;;;11.93;8.27;;;;;;;;;;5033487;28;20048;-80
2023/12/01 00:24:43;;;;;;;10.15;9.02;;;;;;;;;;5011297;28;20525;-80
2023/12/01 00:27:10;;;;;;;8.85;7.65;;;;;;;;;;5019316;28;20056;-80
2023/12/01 00:29:44;;;;;;;9.20;7.07;;;;;;;;;;5013082;28;20056;-80
2023/12/01 00:32:11;;;;;;;8.10;6.80;;;;;;;;;;5038351;28;20040;-80
2023/12/01 00:34:38;;;;;;;9.77;8.60;;;;;;;;;;5019261;28;20052;-80
2023/12/01 00:37:32;;;;;;;8.93;7.95;;;;;;;;;;5037579;28;20109;-80
2023/12/01 00:39:59;;;;;;;10.50;8.57;;;;;;;;;;5040381;28;20407;-80
2023/12/01 00:42:27;;;;;;;14.15;9.48;;;;;;;;;;5030057;28;20056;-80
2023/12/01 00:44:54;;;;;;;9.43;8.27;;;;;;;;;;5038814;28;20045;-79
2023/12/01 00:47:21;;;;;;;11.85;9.00;;;;;;;;;;5037350;28;20411;-79
2023/12/01 00:49:51;;;;;;;13.10;9.52;;;;;;;;;;5021916;28;20048;-79
2023/12/01 00:52:18;;;;;;;9.40;8.50;;;;;;;;;;5038746;28;20052;-79
2023/12/01 00:54:46;;;;;;;10.02;7.53;;;;;;;;;;5021862;28;20044;-79
2023/12/01 00:57:14;;;;;;;10.07;8.48;;;;;;;;;;5016711;28;20045;-80
2023/12/01 00:59:41;;;;;;;8.57;7.68;;;;;;;;;;5011968;28;20071;-80
2023/12/01 01:02:11;;;;;;;10.90;8.05;;;;;;;;;;5017403;28;20056;-80
2023/12/01 01:04:41;;;;;;;9.40;8.43;;;;;;;;;;5034818;28;20041;-80
2023/12/01 01:07:08;;;;;;;11.23;9.02;;;;;;;;;;5021656;28;20045;-80
2023/12/01 01:09:38;;;;;;;11.13;9.32;;;;;;;;;;5037614;28;20095;-80
2023/12/01 01:12:09;;;;;;;8.65;6.85;;;;;;;;;;5034764;28;20052;-80
2023/12/01 01:14:39;;;;;;;9.70;8.60;;;;;;;;;;5016933;28;20068;-80
2023/12/01 01:17:06;;;;;;;9.70;7.22;;;;;;;;;;5013993;28;20414;-80
2023/12/01 01:19:33;;;;;;;9.25;6.93;;;;;;;;;;5022074;28;20060;-81
2023/12/01 01:22:00;;;;;;;8.95;7.25;;;;;;;;;;5021627;28;20406;-80
2023/12/01 01:24:28;;;;;;;9.07;8.15;;;;;;;;;;5040586;28;20091;-80
2023/12/01 01:26:55;;;;;;;9.52;8.07;;;;;;;;;;5012221;28;20533;-80
2023/12/01 01:29:26;;;;;;;8.02;6.57;;;;;;;;;;5052766;28;20049;-80
2023/12/01 01:31:53;;;;;;;10.20;6.93;;;;;;;;;;5017590;28;20052;-80
2023/12/01 01:34:20;;;;;;;9.02;7.18;;;;;;;;;;5040231;28;20079;-80
2023/12/01 01:36:48;;;;;;;9.90;7.90;;;;;;;;;;5031480;28;20052;-80
2023/12/01 01:39:17;;;;;;;10.73;6.75;;;;;;;;;;5037214;28;20060;-80
2023/12/01 01:41:45;;;;;;;10.45;8.23;;;;;;;;;;5022048;28;20056;-80
2023/12/01 01:44:12;;;;;;;10.80;8.27;;;;;;;;;;5023652;28;20313;-80
2023/12/01 01:46:41;;;;;;;10.00;7.88;;;;;;;;;;5039775;28;20037;-80
2023/12/01 01:49:08;;;;;;;8.95;8.00;;;;;;;;;;5024285;28;20053;-80
2023/12/01 01:51:36;;;;;;;8.07;7.13;;;;;;;;;;5024876;28;20227;-80
2023/12/01 01:54:06;;;;;;;8.63;7.65;;;;;;;;;;5022743;28;20156;-80
2023/12/01 01:56:35;;;;;;;11.07;7.70;;;;;;;;;;5028162;28;20045;-80
2023/12/01 01:59:02;;;;;;;8.38;7.32;;;;;;;;;;5038155;28;20059;-79
2023/12/01 02:01:30;;;;;;;7.57;6.53;;;;;;;;;;5021876;28;20057;-79
2023/12/01 02:03:58;;;;;;;11.27;7.88;;;;;;;;;;5034974;28;20045;-79
2023/12/01 02:06:32;;;;;;;7.68;6.15;;;;;;;;;;5014638;28;20048;-79
2023/12/01 02:09:03;;;;;;;8.75;7.70;;;;;;;;;;5055326;28;20049;-79
2023/12/01 02:11:31;;;;;;;7.65;6.43;;;;;;;;;;5020596;28;20045;-79
2023/12/01 02:13:59;;;;;;;7.55;6.80;;;;;;;;;;5039820;28;20045;-79
2023/12/01 02:16:29;;;;;;;8.85;6.25;;;;;;;;;;5029322;28;20049;-79
2023/12/01 02:18:57;;;;;;;9.73;7.88;;;;;;;;;;5036792;28;20404;-79
2023/12/01 02:21:29;;;;;;;10.52;8.60;;;;;;;;;;5020961;28;20044;-80
2023/12/01 02:23:59;;;;;;;10.70;7.43;;;;;;;;;;5055458;28;20402;-80
2023/12/01 02:26:26;;;;;;;9.98;8.52;;;;;;;;;;5012874;28;20053;-80
2023/12/01 02:28:54;;;;;;;8.73;7.80;;;;;;;;;;5019814;28;20045;-79
2023/12/01 02:31:23;;;;;;;8.25;7.43;;;;;;;;;;5018977;28;20049;-81
2023/12/01 02:33:53;;;;;;;7.75;7.05;;;;;;;;;;5018883;28;20507;-80
2023/12/01 02:36:25;;;;;;;7.35;6.63;;;;;;;;;;5035070;28;20053;-80
2023/12/01 02:38:53;;;;;;;9.98;7.55;;;;;;;;;;5033726;28;20033;-80
2023/12/01 02:41:22;;;;;;;9.25;7.85;;;;;;;;;;5031011;28;20053;-80
2023/12/01 02:43:51;;;;;;;9.07;7.22;;;;;;;;;;5051138;28;20048;-80
2023/12/01 02:46:22;;;;;;;9.10;6.85;;;;;;;;;;5034268;28;20530;-80
2023/12/01 02:48:51;;;;;;;7.78;6.63;;;;;;;;;;5041862;28;20053;-80
2023/12/01 02:51:19;;;;;;;11.75;9.82;;;;;;;;;;5034326;28;20045;-80
2023/12/01 02:53:46;;;;;;;11.07;9.27;;;;;;;;;;5053165;28;20060;-80
2023/12/01 02:56:16;;;;;;;11.75;8.18;;;;;;;;;;5021115;28;20049;-80
2023/12/01 02:58:45;;;;;;;9.32;8.07;;;;;;;;;;5038001;28;20041;-80
2023/12/01 03:01:12;;;;;;;8.05;6.80;;;;;;;;;;5021169;28;20055;-80
2023/12/01 03:03:42;;;;;;;10.35;7.85;;;;;;;;;;5021347;28;20049;-80
2023/12/01 03:06:10;;;;;;;8.55;7.75;;;;;;;;;;5039024;28;20045;-80
2023/12/01 03:08:37;;;;;;;9.25;8.00;;;;;;;;;;5022781;28;20398;-80
2023/12/01 03:11:07;;;;;;;7.95;6.72;;;;;;;;;;5024156;28;20045;-80
2023/12/01 03:13:35;;;;;;;8.80;7.35;;;;;;;;;;5021077;28;20053;-80
2023/12/01 03:16:07;;;;;;;8.00;7.20;;;;;;;;;;5058085;28;20048;-80
2023/12/01 03:18:37;;;;;;;9.25;8.30;;;;;;;;;;5018903;28;20045;-80
2023/12/01 03:21:12;;;;;;;8.38;6.45;;;;;;;;;;5021862;28;20049;-81
2023/12/01 03:23:42;;;;;;;10.13;8.82;;;;;;;;;;5038889;28;20392;-80
2023/12/01 03:26:09;;;;;;;10.00;6.75;;;;;;;;;;5036933;28;20049;-80
2023/12/01 03:28:40;;;;;;;10.48;8.00;;;;;;;;;;5018133;28;20050;-80
2023/12/01 03:31:09;;;;;;;11.05;8.85;;;;;;;;;;5026265;28;20076;-80
2023/12/01 03:33:38;;;;;;;11.02;7.10;;;;;;;;;;5039173;28;20053;-80
2023/12/01 03:36:06;;;;;;;9.93;8.38;;;;;;;;;;5037297;28;20502;-81
2023/12/01 03:38:34;;;;;;;10.23;7.95;;;;;;;;;;5039295;28;20402;-80
2023/12/01 03:41:05;;;;;;;8.63;7.88;;;;;;;;;;5030304;28;20045;-80
2023/12/01 03:43:33;;;;;;;8.73;6.65;;;;;;;;;;5021113;28;20140;-80
2023/12/01 03:46:00;;;;;;;8.30;7.18;;;;;;;;;;5021958;28;20052;-80
2023/12/01 03:48:31;;;;;;;7.70;6.32;;;;;;;;;;5014466;28;20044;-80
2023/12/01 03:50:58;;;;;;;10.27;8.15;;;;;;;;;;5036794;28;20045;-80
2023/12/01 03:53:26;;;;;;;8.65;7.55;;;;;;;;;;5019277;28;20205;-80
2023/12/01 03:55:55;;;;;;;8.50;7.60;;;;;;;;;;5019806;28;20060;-80
2023/12/01 03:58:24;;;;;;;9.38;8.05;;;;;;;;;;5036458;28;20048;-80
2023/12/01 04:00:51;;;;;;;8.52;7.22;;;;;;;;;;5019630;28;20049;-80
2023/12/01 04:03:23;;;;;;;9.48;7.63;;;;;;;;;;5018956;28;20049;-80
2023/12/01 04:05:52;;;;;;;8.48;7.35;;;;;;;;;;5036725;28;20045;-80
2023/12/01 04:08:19;;;;;;;10.50;7.22;;;;;;;;;;5020714;28;20056;-79
2023/12/01 04:10:50;;;;;;;8.75;7.78;;;;;;;;;;5034353;28;20041;-79
2023/12/01 04:13:18;;;;;;;10.30;7.45;;;;;;;;;;5019682;28;20068;-79
2023/12/01 04:15:45;;;;;;;10.57;9.45;;;;;;;;;;5034613;28;20044;-79
2023/12/01 04:18:12;;;;;;;10.80;9.02;;;;;;;;;;5019282;28;20045;-79
2023/12/01 04:20:42;;;;;;;11.18;8.23;;;;;;;;;;5040148;28;20403;-80
2023/12/01 04:23:11;;;;;;;11.27;9.20;;;;;;;;;;5020320;28;20037;-80
2023/12/01 04:25:40;;;;;;;9.70;7.13;;;;;;;;;;5018515;28;20057;-80
2023/12/01 04:28:08;;;;;;;7.47;6.35;;;;;;;;;;5032656;28;20049;-80
2023/12/01 04:30:35;;;;;;;9.65;8.35;;;;;;;;;;5038177;28;20052;-80
2023/12/01 04:33:02;;;;;;;8.43;7.00;;;;;;;;;;5034950;28;20052;-80
2023/12/01 04:35:34;;;;;;;10.68;7.97;;;;;;;;;;5036177;28;20053;-80
2023/12/01 04:38:04;;;;;;;7.78;6.07;;;;;;;;;;5026798;28;20045;-80
2023/12/01 04:40:36;;;;;;;9.57;8.68;;;;;;;;;;5035553;28;20063;-80
2023/12/01 04:43:04;;;;;;;9.57;8.30;;;;;;;;;;5032038;28;20053;-80
2023/12/01 04:45:35;;;;;;;10.20;8.25;;;;;;;;;;5051829;28;20056;-80
2023/12/01 04:48:03;;;;;;;9.23;7.80;;;;;;;;;;5018844;28;20037;-80
2023/12/01 04:50:35;;;;;;;8.77;7.20;;;;;;;;;;5035155;28;20406;-80
2023/12/01 04:53:03;;;;;;;9.50;7.75;;;;;;;;;;5053979;28;20041;-80
2023/12/01 04:55:30;;;;;;;7.80;6.95;;;;;;;;;;5036035;28;20060;-80
2023/12/01 04:58:02;;;;;;;8.20;6.38;;;;;;;;;;5035466;28;20045;-80
2023/12/01 05:00:29;;;;;;;9.43;7.25;;;;;;;;;;5035350;28;20411;-80
2023/12/01 05:03:01;;;;;;;8.75;7.10;;;;;;;;;;5034681;28;20048;-80
2023/12/01 05:05:29;;;;;;;10.73;8.20;;;;;;;;;;5032624;28;20411;-80
2023/12/01 05:07:58;;;;;;;10.05;8.63;;;;;;;;;;5052973;28;20044;-80
2023/12/01 05:10:27;;;;;;;8.90;7.07;;;;;;;;;;5034440;28;20060;-79
2023/12/01 05:12:58;;;;;;;9.35;7.32;;;;;;;;;;5034996;28;20056;-79
2023/12/01 05:15:28;;;;;;;10.90;8.25;;;;;;;;;;5033787;28;20049;-79
2023/12/01 05:17:57;;;;;;;8.98;6.78;;;;;;;;;;5033805;28;20136;-79
2023/12/01 05:20:28;;;;;;;11.23;7.85;;;;;;;;;;5018383;28;20053;-79
2023/12/01 05:22:57;;;;;;;9.57;7.53;;;;;;;;;;5037163;28;20045;-80
2023/12/01 05:25:26;;;;;;;9.95;8.05;;;;;;;;;;5022113;28;20056;-80
2023/12/01 05:27:55;;;;;;;10.80;7.78;;;;;;;;;;5021757;28;20053;-80
2023/12/01 05:30:27;;;;;;;12.32;8.25;;;;;;;;;;5036863;28;20044;-80
2023/12/01 05:32:58;;;;;;;8.75;7.82;;;;;;;;;;5059526;28;20132;-80
2023/12/01 05:35:26;;;;;;;11.68;7.88;;;;;;;;;;5021430;28;20059;-80
2023/12/01 05:37:53;;;;;;;11.13;8.43;;;;;;;;;;5035360;28;20053;-80
2023/12/01 05:40:25;;;;;;;9.65;7.13;;;;;;;;;;5052962;28;20056;-80
2023/12/01 05:42:55;;;;;;;;;;;;;;;;;;5053707;28;20487;-80
2023/12/01 05:45:25;;;;;;;10.40;7.95;;;;;;;;;;5036015;28;19928;-80
2023/12/01 05:47:57;;;;;;;8.52;6.68;;;;;;;;;;5035546;28;20041;-80
2023/12/01 05:50:29;;;;;;;10.05;8.40;;;;;;;;;;5020025;28;20057;-80
2023/12/01 05:52:57;;;;;;;9.82;8.30;;;;;;;;;;5018398;28;20328;-80
2023/12/01 05:55:28;;;;;;;9.25;6.90;;;;;;;;;;5036406;28;20057;-80
2023/12/01 05:57:57;;;;;;;11.38;8.60;;;;;;;;;;5038340;28;20067;-80
2023/12/01 06:00:29;;;;;;;10.60;8.45;;;;;;;;;;5059817;28;20487;-80
2023/12/01 06:02:58;;;;;;;9.30;7.13;;;;;;;;;;5034597;28;20301;-80
2023/12/01 06:05:26;;;;;;;8.70;7.05;;;;;;;;;;5031605;28;20053;-80
2023/12/01 06:07:55;;;;;;;11.13;8.73;;;;;;;;;;5034353;28;20522;-80
2023/12/01 06:10:26;;;;;;;8.80;6.88;;;;;;;;;;5017385;28;20052;-80
2023/12/01 06:12:53;;;;;;;10.60;8.60;;;;;;;;;;5017927;28;20404;-80
2023/12/01 06:15:21;;;;;;;10.23;8.85;;;;;;;;;;5019091;28;20060;-80
2023/12/01 06:17:49;;;;;;;9.40;8.38;;;;;;;;;;5028786;28;20057;-80
2023/12/01 06:20:21;;;;;;;8.90;7.90;;;;;;;;;;5035141;28;20049;-80
2023/12/01 06:22:49;;;;;;;12.73;8.15;;;;;;;;;;5036750;28;20056;-80
2023/12/01 06:25:20;;;;;;;11.27;8.13;;;;;;;;;;5055520;28;20045;-80
2023/12/01 06:27:50;;;;;;;9.60;8.23;;;;;;;;;;5034382;28;20053;-80
2023/12/01 06:30:20;;;;;;;9.63;7.57;;;;;;;;;;5021203;28;20422;-80
2023/12/01 06:32:47;;;;;;;10.35;8.05;;;;;;;;;;5055478;28;20076;-80
2023/12/01 06:35:15;;;;;;;10.70;8.50;;;;;;;;;;5037853;28;20072;-80
2023/12/01 06:37:45;;;;;;;11.68;8.93;;;;;;;;;;5055873;28;20041;-80
2023/12/01 06:40:15;;;;;;;9.40;7.60;;;;;;;;;;5019711;28;20045;-80
2023/12/01 06:42:47;;;;;;;10.10;6.95;;;;;;;;;;5020407;28;20523;-80
2023/12/01 06:45:15;;;;;;;9.38;7.93;;;;;;;;;;5018657;28;20053;-80
2023/12/01 06:47:46;;;;;;;11.18;8.93;;;;;;;;;;5034110;28;20049;-80
2023/12/01 06:50:14;;;;;;;9.63;8.02;;;;;;;;;;5017983;28;20048;-80
2023/12/01 06:52:47;;;;;;;10.88;8.82;;;;;;;;;;5022028;28;20052;-80
2023/12/01 06:55:15;;;;;;;13.52;8.73;;;;;;;;;;5034645;28;20053;-80
2023/12/01 06:57:46;;;;;;;10.43;9.30;;;;;;;;;;5017549;28;20056;-79
2023/12/01 07:00:28;;;;;;;9.73;8.77;;;;;;;;;;5053830;28;20059;-79
2023/12/01 07:02:57;;;;;;;9.77;8.30;;;;;;;;;;5038988;28;20060;-79
2023/12/01 07:05:25;;;;;;;9.73;7.05;;;;;;;;;;5032783;28;20045;-79
2023/12/01 07:07:57;;;;;;;10.65;8.00;;;;;;;;;;5025961;28;20051;-79
2023/12/01 07:10:25;;;;;;;11.07;8.77;;;;;;;;;;5015207;28;20415;-79
2023/12/01 07:12:53;;;;;;;10.38;7.50;;;;;;;;;;5055240;28;20044;-79
2023/12/01 07:15:21;;;;;;;11.00;9.55;;;;;;;;;;5017909;28;20049;-80
2023/12/01 07:17:50;;;;;;;11.65;8.18;;;;;;;;;;5055948;28;20056;-80
2023/12/01 07:20:18;;;;;;;9.23;7.80;;;;;;;;;;5034948;28;20041;-80
2023/12/01 07:22:47;;;;;;;7.00;6.30;;;;;;;;;;5020895;28;20048;-80
2023/12/01 07:25:22;;;;;;;10.63;8.30;;;;;;;;;;5037119;28;20084;-80
2023/12/01 07:27:50;;;;;;;13.75;9.52;;;;;;;;;;5054364;28;20495;-80
2023/12/01 07:30:18;;;;;;;10.15;9.15;;;;;;;;;;5029785;28;20037;-80
2023/12/01 09:06:26;;;;;;;18.25;14.20;;;;;;;;;;4838195;22;20053;-79
2023/12/01 09:09:32;;;;;;;;;;;;;;;;;;;;;
2023/12/01 09:12:36;;;;;;;;;;;;;;;;;;;;;
2023/12/01 09:16:23;;;;;;;14.90;12.30;;;;;;;;;;4899957;29;20051;-79
2023/12/01 09:19:36;;;;;;;;;;;;;;;;;;;;;
2023/12/01 09:26:34;;;;;;;;;;;;;;;;;;;;;
2023/12/01 09:29:37;;;;;;;15.75;12.80;;;;;;;;;;4998438;28;20075;-79
2023/12/01 09:36:38;;;;;;;;;;;;;;;;;;;;;
2023/12/01 09:39:35;;;;;;;18.00;15.32;;;;;;;;;;4993629;28;20050;-79
2023/12/01 09:42:42;;;;;;;18.73;13.23;;;;;;;;;;4996143;28;20049;-79
2023/12/01 09:45:31;;;;;;;17.25;14.45;;;;;;;;;;4926900;29;20099;-79
2023/12/01 09:51:45;;;;;;;20.00;14.57;;;;;;;;;;5016226;28;20392;-79
2023/12/01 09:54:56;;;;;;;;;;;;;;;;;;;;;
2023/12/01 09:58:10;;;;;;;18.58;13.88;;;;;;;;;;4981047;28;20053;-79
2023/12/01 10:05:33;;;;;;;16.20;14.48;;;;;;;;;;4900688;29;20071;-79
2023/12/01 10:09:37;;;;;;;;;;;;;;;;;;;;;
2023/12/01 10:13:51;;;;;;;22.90;14.77;;;;;;;;;;4804591;29;20043;-79
2023/12/01 10:24:54;;;;;;;15.95;14.13;;;;;;;;;;4778985;29;20065;-80
2023/12/01 10:27:22;;;;;;;14.85;10.88;;;;;;;;;;4985796;28;20058;-80
2023/12/01 10:29:49;;;;;;;15.50;12.02;;;;;;;;;;4996760;28;20053;-80
2023/12/01 10:32:19;;;;;;;18.67;11.85;;;;;;;;;;4996849;28;20050;-80
2023/12/01 10:34:49;;;;;;;14.13;12.57;;;;;;;;;;4997910;28;20525;-80
2023/12/01 10:37:17;;;;;;;15.00;10.93;;;;;;;;;;5027551;28;20045;-79
2023/12/01 10:39:44;;;;;;;14.15;11.50;;;;;;;;;;5001514;28;20049;-80
2023/12/01 10:42:16;;;;;;;17.65;13.15;;;;;;;;;;5001482;28;20412;-80
2023/12/01 10:44:44;;;;;;;16.48;10.98;;;;;;;;;;5023089;28;20059;-79
2023/12/01 10:47:15;;;;;;;18.33;14.05;;;;;;;;;;5012312;28;20553;-79
2023/12/01 10:49:44;;;;;;;17.25;12.77;;;;;;;;;;4993880;28;20046;-80
2023/12/01 10:52:12;;;;;;;17.38;12.40;;;;;;;;;;5009038;28;20049;-80
2023/12/01 10:54:44;;;;;;;16.73;11.20;;;;;;;;;;5010640;28;20412;-80
2023/12/01 10:57:26;;;;;;;16.65;12.35;;;;;;;;;;4987555;28;20519;-80
2023/12/01 10:59:57;;;;;;;14.77;11.88;;;;;;;;;;5023699;28;20062;-80
2023/12/01 11:02:25;;;;;;;12.15;10.15;;;;;;;;;;4992673;28;20046;-79
2023/12/01 11:04:52;;;;;;;14.13;9.93;;;;;;;;;;5008389;28;20042;-79
2023/12/01 11:07:34;;;;;;;17.75;11.93;;;;;;;;;;5009553;28;20496;-79
2023/12/01 11:10:15;;;;;;;13.52;10.85;;;;;;;;;;5005079;28;20053;-79
2023/12/01 11:12:58;;;;;;;14.32;11.00;;;;;;;;;;5019760;28;20046;-79
2023/12/01 11:15:30;;;;;;;15.10;12.35;;;;;;;;;;5003554;28;20408;-79
2023/12/01 11:17:59;;;;;;;14.32;11.00;;;;;;;;;;5009836;28;20491;-79
2023/12/01 11:20:34;;;;;;;15.93;13.98;;;;;;;;;;5028857;28;20058;-80
2023/12/01 11:23:23;;;;;;;14.98;12.35;;;;;;;;;;5025964;28;20061;-79
2023/12/01 11:25:54;;;;;;;15.05;12.50;;;;;;;;;;4994136;28;20050;-79
2023/12/01 11:28:27;;;;;;;14.13;11.57;;;;;;;;;;5009109;28;20068;-79
2023/12/01 11:31:08;;;;;;;13.70;11.48;;;;;;;;;;5014599;28;20057;-80
2023/12/01 11:33:40;;;;;;;13.93;11.52;;;;;;;;;;4984175;28;20054;-80
2023/12/01 11:36:27;;;;;;;16.73;12.65;;;;;;;;;;4986249;28;20058;-79
2023/12/01 11:39:16;;;;;;;13.80;11.38;;;;;;;;;;5005300;28;20050;-80
2023/12/01 11:41:50;;;;;;;15.65;12.15;;;;;;;;;;4999752;28;20041;-80
2023/12/01 11:44:22;;;;;;;18.55;12.73;;;;;;;;;;5009013;28;20049;-80
2023/12/01 11:46:55;;;;;;;18.70;12.63;;;;;;;;;;5009075;28;20234;-80
2023/12/01 11:49:24;;;;;;;16.30;11.17;;;;;;;;;;5006484;28;20061;-80
2023/12/01 11:51:51;;;;;;;14.70;12.07;;;;;;;;;;5004780;28;20042;-80
2023/12/01 11:54:19;;;;;;;18.50;13.10;;;;;;;;;;4984310;28;20054;-80
2023/12/01 11:56:50;;;;;;;13.65;11.25;;;;;;;;;;5013368;28;20046;-80
2023/12/01 11:59:19;;;;;;;18.77;12.05;;;;;;;;;;4996831;28;20054;-80
2023/12/01 12:01:53;;;;;;;16.25;11.45;;;;;;;;;;4993178;28;20042;-80
2023/12/01 12:04:20;;;;;;;14.65;11.13;;;;;;;;;;4992288;28;20050;-79
2023/12/01 12:06:47;;;;;;;19.65;13.45;;;;;;;;;;5026426;28;20042;-80
2023/12/01 12:09:17;;;;;;;15.50;12.05;;;;;;;;;;5017559;28;20046;-79
2023/12/01 12:11:48;;;;;;;18.30;14.40;;;;;;;;;;4986431;28;20049;-79
2023/12/01 12:14:16;;;;;;;18.50;13.18;;;;;;;;;;4983635;28;20054;-80
2023/12/01 12:16:44;;;;;;;19.48;13.35;;;;;;;;;;4992160;28;20054;-80
2023/12/01 12:19:14;;;;;;;20.10;14.80;;;;;;;;;;5003029;28;20061;-80
2023/12/01 12:21:41;;;;;;;17.50;11.95;;;;;;;;;;4992560;28;20046;-79
2023/12/01 12:24:11;;;;;;;14.55;11.95;;;;;;;;;;4999182;28;20046;-80
2023/12/01 12:26:38;;;;;;;17.63;12.75;;;;;;;;;;4984253;28;20070;-80
2023/12/01 12:29:07;;;;;;;19.77;12.52;;;;;;;;;;5025424;28;20042;-80
2023/12/01 12:31:37;;;;;;;14.57;12.70;;;;;;;;;;5017876;28;20033;-80
2023/12/01 12:34:08;;;;;;;17.67;14.00;;;;;;;;;;4998487;28;20054;-80
2023/12/01 12:36:38;;;;;;;16.92;12.77;;;;;;;;;;4992878;28;20050;-79
2023/12/01 12:39:07;;;;;;;13.90;12.30;;;;;;;;;;5026382;28;20045;-79
2023/12/01 12:41:36;;;;;;;14.43;11.73;;;;;;;;;;5018540;28;20049;-79
2023/12/01 12:44:07;;;;;;;17.90;11.48;;;;;;;;;;4993968;28;20054;-79
2023/12/01 12:46:36;;;;;;;17.48;11.35;;;;;;;;;;5001013;28;20524;-80
2023/12/01 12:49:04;;;;;;;16.63;12.27;;;;;;;;;;5007265;28;20046;-79
2023/12/01 12:51:38;;;;;;;19.83;12.23;;;;;;;;;;5001793;28;20053;-79
2023/12/01 12:54:09;;;;;;;18.40;14.18;;;;;;;;;;4995408;28;20061;-79
2023/12/01 12:56:37;;;;;;;19.38;11.57;;;;;;;;;;4994410;28;20058;-79
2023/12/01 12:59:05;;;;;;;19.63;14.02;;;;;;;;;;5008679;28;20054;-79
2023/12/01 13:02:05;;;;;;;16.70;13.52;;;;;;;;;;4988041;28;20542;-79
2023/12/01 13:04:34;;;;;;;16.58;12.98;;;;;;;;;;5001089;28;20053;-79
2023/12/01 13:07:06;;;;;;;16.55;11.95;;;;;;;;;;5020976;28;20050;-79
2023/12/01 13:09:34;;;;;;;17.45;13.50;;;;;;;;;;5017154;28;20057;-79
2023/12/01 13:12:03;;;;;;;20.70;13.80;;;;;;;;;;5016247;28;20052;-79
2023/12/01 13:14:33;;;;;;;20.63;12.40;;;;;;;;;;5005042;28;20054;-80
2023/12/01 13:17:00;;;;;;;19.63;13.48;;;;;;;;;;5004662;28;20404;-78
2023/12/01 13:19:30;;;;;;;18.08;12.20;;;;;;;;;;5027543;28;20056;-79
2023/12/01 13:21:57;;;;;;;19.33;14.40;;;;;;;;;;4970938;28;20050;-79
2023/12/01 13:24:28;;;;;;;14.07;11.93;;;;;;;;;;4999861;28;20058;-80
2023/12/01 13:26:55;;;;;;;17.23;12.27;;;;;;;;;;4985541;28;20052;-79
2023/12/01 13:29:22;;;;;;;20.67;13.93;;;;;;;;;;4994361;28;20058;-79
2023/12/01 13:31:52;;;;;;;16.40;11.77;;;;;;;;;;5004266;28;20053;-79
2023/12/01 13:37:05;;;;;;;19.77;13.20;;;;;;;;;;5009631;28;20034;-81
2023/12/01 13:39:35;;;;;;;16.92;13.02;;;;;;;;;;5009951;28;20483;-82
2023/12/01 13:42:03;;;;;;;17.30;11.82;;;;;;;;;;5039134;28;20037;-82
2023/12/01 13:44:30;;;;;;;15.60;11.93;;;;;;;;;;5042264;28;20045;-82
2023/12/01 13:46:59;;;;;;;20.63;12.60;;;;;;;;;;5022789;28;20518;-82
2023/12/01 13:49:27;;;;;;;18.90;14.30;;;;;;;;;;5023705;28;20053;-82
2023/12/01 13:51:56;;;;;;;18.45;15.52;;;;;;;;;;5007812;28;20049;-82
2023/12/01 13:54:23;;;;;;;18.98;14.70;;;;;;;;;;5041756;28;20053;-82
2023/12/01 13:56:52;;;;;;;18.27;14.75;;;;;;;;;;5023152;28;20463;-80
2023/12/01 13:59:20;;;;;;;19.70;13.48;;;;;;;;;;5029031;28;20068;-82
2023/12/01 14:01:48;;;;;;;19.70;13.55;;;;;;;;;;5007694;28;20068;-82
2023/12/01 14:04:15;;;;;;;19.10;12.77;;;;;;;;;;5024678;28;20096;-82
2023/12/01 14:06:48;;;;;;;14.38;11.55;;;;;;;;;;5041140;28;20407;-81
2023/12/01 14:09:16;;;;;;;16.10;11.65;;;;;;;;;;5022763;28;20057;-81
2023/12/01 14:11:44;;;;;;;20.52;14.02;;;;;;;;;;5005840;28;20053;-82
2023/12/01 14:14:12;;;;;;;17.77;13.73;;;;;;;;;;5023970;28;20053;-83
2023/12/01 14:16:40;;;;;;;18.80;13.82;;;;;;;;;;5006786;28;20061;-83
2023/12/01 14:19:07;;;;;;;18.38;14.82;;;;;;;;;;5023203;28;20056;-83
2023/12/01 14:21:35;;;;;;;15.88;12.48;;;;;;;;;;5042661;28;20046;-83
2023/12/01 14:24:02;;;;;;;22.88;13.25;;;;;;;;;;5024541;28;20049;-82
2023/12/01 14:26:29;;;;;;;21.27;14.40;;;;;;;;;;5042143;28;20060;-82
2023/12/01 14:28:58;;;;;;;16.80;13.57;;;;;;;;;;5008158;28;20057;-82
2023/12/01 14:31:27;;;;;;;22.45;13.85;;;;;;;;;;5026281;28;20042;-82
2023/12/01 14:33:54;;;;;;;19.02;14.23;;;;;;;;;;5007743;28;20049;-82
2023/12/01 14:36:21;;;;;;;19.85;14.45;;;;;;;;;;5042825;28;20327;-82
2023/12/01 14:38:50;;;;;;;17.63;13.80;;;;;;;;;;5007704;28;20511;-82
2023/12/01 14:41:18;;;;;;;18.10;13.63;;;;;;;;;;5024567;28;20053;-82
2023/12/01 14:43:45;;;;;;;21.17;14.85;;;;;;;;;;5024469;28;20045;-82
2023/12/01 14:46:13;;;;;;;20.77;16.33;;;;;;;;;;5023939;28;20049;-82
2023/12/01 14:48:41;;;;;;;16.98;12.95;;;;;;;;;;5032450;28;20053;-82
2023/12/01 14:51:13;;;;;;;18.70;13.75;;;;;;;;;;5028832;28;20129;-83
2023/12/01 14:53:40;;;;;;;20.90;15.27;;;;;;;;;;5012434;28;20060;-83
2023/12/01 14:56:09;;;;;;;19.77;13.85;;;;;;;;;;5011435;28;20053;-83
2023/12/01 14:58:39;;;;;;;18.90;15.65;;;;;;;;;;5010974;28;20431;-83
2023/12/01 15:01:09;;;;;;;18.35;15.77;;;;;;;;;;5046012;28;20043;-83
2023/12/01 15:03:38;;;;;;;24.90;17.40;;;;;;;;;;5012364;28;20076;-81
2023/12/01 15:06:08;;;;;;;21.77;15.65;;;;;;;;;;5004843;28;20446;-82
2023/12/01 15:08:40;;;;;;;23.88;17.73;;;;;;;;;;5003761;28;20060;-82
2023/12/01 15:11:08;;;;;;;22.52;17.35;;;;;;;;;;5028839;28;20049;-82
2023/12/01 15:13:39;;;;;;;21.95;16.45;;;;;;;;;;5045109;28;20052;-81
2023/12/01 15:16:08;;;;;;;21.95;16.25;;;;;;;;;;5010952;28;20045;-81
2023/12/01 15:18:35;;;;;;;19.58;14.95;;;;;;;;;;5026602;28;20041;-81
2023/12/01 15:21:07;;;;;;;22.05;15.90;;;;;;;;;;5027373;28;20051;-82
2023/12/01 15:23:37;;;;;;;20.50;13.73;;;;;;;;;;5025591;28;20069;-81
2023/12/01 15:26:04;;;;;;;17.17;12.73;;;;;;;;;;5027156;28;20045;-82
2023/12/01 15:28:32;;;;;;;17.60;13.32;;;;;;;;;;5044858;28;20061;-81
2023/12/01 15:31:01;;;;;;;19.48;13.65;;;;;;;;;;5027179;28;20052;-82
2023/12/01 15:33:29;;;;;;;18.98;13.50;;;;;;;;;;5045347;28;20053;-82
2023/12/01 15:35:58;;;;;;;18.10;14.98;;;;;;;;;;5027083;28;20049;-82
2023/12/01 15:38:29;;;;;;;17.30;12.38;;;;;;;;;;5011642;28;20550;-82
2023/12/01 15:40:59;;;;;;;19.67;14.40;;;;;;;;;;5018089;28;20049;-82
2023/12/01 15:43:26;;;;;;;18.10;13.93;;;;;;;;;;5010701;28;20547;-83
2023/12/01 15:45:58;;;;;;;18.73;13.30;;;;;;;;;;5010872;28;20045;-82
2023/12/01 15:48:25;;;;;;;16.52;12.20;;;;;;;;;;5031411;28;20050;-82
2023/12/01 15:50:55;;;;;;;18.30;13.90;;;;;;;;;;5043727;28;20387;-82
2023/12/01 15:53:23;;;;;;;18.05;13.13;;;;;;;;;;5009955;28;20049;-82
2023/12/01 15:55:54;;;;;;;13.13;10.88;;;;;;;;;;5044885;28;21051;-83
2023/12/01 15:58:21;;;;;;;13.52;11.90;;;;;;;;;;5010002;28;20049;-83
2023/12/01 16:00:51;;;;;;;16.73;12.93;;;;;;;;;;5043298;28;20048;-82
2023/12/01 16:03:18;;;;;;;14.02;11.18;;;;;;;;;;5007927;28;20056;-82
2023/12/01 16:05:45;;;;;;;12.90;10.85;;;;;;;;;;5023448;28;20056;-82
2023/12/01 16:08:13;;;;;;;12.43;9.88;;;;;;;;;;5009551;28;20057;-82
2023/12/01 16:10:43;;;;;;;16.85;11.88;;;;;;;;;;5026128;28;20041;-82
2023/12/01 16:13:12;;;;;;;12.35;10.05;;;;;;;;;;5005474;28;20112;-83
2023/12/01 16:15:39;;;;;;;13.73;10.68;;;;;;;;;;5021764;28;20057;-82
2023/12/01 16:18:11;;;;;;;13.35;10.00;;;;;;;;;;5041641;28;20048;-82
2023/12/01 16:20:41;;;;;;;15.38;11.80;;;;;;;;;;5007017;28;20053;-82
2023/12/01 16:23:11;;;;;;;15.35;9.82;;;;;;;;;;5009042;28;20049;-82
2023/12/01 16:25:40;;;;;;;14.82;10.13;;;;;;;;;;5012977;28;20052;-82
2023/12/01 16:28:11;;;;;;;14.23;9.57;;;;;;;;;;5026035;28;20056;-82
2023/12/01 16:30:41;;;;;;;15.52;11.82;;;;;;;;;;5043030;28;20068;-83
2023/12/01 16:33:08;;;;;;;11.98;9.57;;;;;;;;;;5008322;28;20068;-82
2023/12/01 16:35:35;;;;;;;11.85;9.90;;;;;;;;;;5008185;28;20037;-82
2023/12/01 16:38:05;;;;;;;10.23;8.32;;;;;;;;;;5025683;28;20056;-82
2023/12/01 16:40:32;;;;;;;10.07;8.85;;;;;;;;;;5024884;28;20059;-82
2023/12/01 16:42:59;;;;;;;12.20;10.95;;;;;;;;;;5042321;28;20075;-83
2023/12/01 16:45:28;;;;;;;10.38;9.27;;;;;;;;;;5008465;28;20045;-83
2023/12/01 16:47:55;;;;;;;11.18;9.55;;;;;;;;;;5024880;28;20396;-83
2023/12/01 16:50:25;;;;;;;14.20;9.15;;;;;;;;;;5027359;28;20071;-83
2023/12/01 16:52:57;;;;;;;13.88;9.30;;;;;;;;;;5039549;28;20049;-83
2023/12/01 16:55:26;;;;;;;13.10;10.13;;;;;;;;;;5009068;28;20052;-83
2023/12/01 16:57:56;;;;;;;11.15;9.25;;;;;;;;;;5024847;28;20052;-81
2023/12/01 17:00:26;;;;;;;11.57;8.57;;;;;;;;;;5030333;28;20069;-81
2023/12/01 17:02:54;;;;;;;12.50;9.35;;;;;;;;;;5031455;28;20045;-81